Time;durP1;ratioP1;P1;durP2;ratioP2;P2;SDS_P1;SDS_P2;PMS_P1;PMS_P2;Temp;Humidity;BMP_temperature;BMP_pressure;BME280_temperature;BME280_humidity;BME280_pressure;Samples;Min_cycle;Max_cycle;Signal;HPM_P1;HPM_P2
2023/01/25 00:01:53;;;;;;;42.15;24.48;;;2.20;99.90;;;;;;5036397;28;20052;-76
2023/01/25 00:04:19;;;;;;;38.63;23.98;;;2.00;99.90;;;;;;5040453;28;20087;-76
2023/01/25 00:06:45;;;;;;;39.53;23.83;;;2.00;99.90;;;;;;5035510;28;20520;-76
2023/01/25 00:09:11;;;;;;;39.85;24.33;;;1.90;99.90;;;;;;5048087;28;20041;-76
2023/01/25 00:11:37;;;;;;;40.28;24.02;;;1.90;99.90;;;;;;5046806;28;20464;-76
2023/01/25 00:14:04;;;;;;;41.35;24.55;;;1.90;99.90;;;;;;5059948;28;20179;-76
2023/01/25 00:16:30;;;;;;;41.67;25.13;;;1.90;99.90;;;;;;5053383;28;20047;-76
2023/01/25 00:18:56;;;;;;;41.75;25.23;;;1.90;99.90;;;;;;5046557;28;20041;-76
2023/01/25 00:21:24;;;;;;;40.03;24.25;;;2.40;99.90;;;;;;5060366;28;20438;-76
2023/01/25 00:23:50;;;;;;;40.58;24.23;;;1.90;99.90;;;;;;5056658;28;20044;-76
2023/01/25 00:26:16;;;;;;;40.30;23.58;;;1.90;99.90;;;;;;5065449;28;20040;-76
2023/01/25 00:28:41;;;;;;;40.60;24.30;;;1.90;99.90;;;;;;5055322;28;20072;-76
2023/01/25 00:31:14;;;;;;;41.75;23.45;;;1.90;99.90;;;;;;5034493;28;20061;-76
2023/01/25 00:33:51;;;;;;;41.97;25.15;;;1.90;99.90;;;;;;5040638;28;20399;-76
2023/01/25 00:36:35;;;;;;;40.58;23.80;;;1.90;99.90;;;;;;5051631;28;20041;-76
2023/01/25 00:39:01;;;;;;;39.08;23.52;;;1.90;99.90;;;;;;5050992;28;20083;-76
2023/01/25 00:41:27;;;;;;;39.72;23.33;;;1.90;99.90;;;;;;5035476;28;20501;-76
2023/01/25 00:43:53;;;;;;;40.88;24.05;;;1.90;99.90;;;;;;5060023;28;20119;-76
2023/01/25 00:46:19;;;;;;;41.20;24.30;;;2.00;99.90;;;;;;5062438;28;20382;-76
2023/01/25 00:48:53;;;;;;;39.08;23.90;;;1.80;99.90;;;;;;5035575;28;20041;-76
2023/01/25 00:51:19;;;;;;;40.08;23.75;;;1.90;99.90;;;;;;5054183;28;20029;-77
2023/01/25 00:53:45;;;;;;;39.67;23.27;;;1.90;99.90;;;;;;5059388;28;20485;-76
2023/01/25 00:56:11;;;;;;;39.88;22.98;;;1.90;99.90;;;;;;5055743;28;20075;-76
2023/01/25 00:58:36;;;;;;;39.55;23.48;;;1.80;99.90;;;;;;5061957;28;20043;-76
2023/01/25 01:01:02;;;;;;;39.55;23.80;;;1.80;99.90;;;;;;5052082;28;20389;-76
2023/01/25 01:03:27;;;;;;;41.58;24.35;;;1.80;99.90;;;;;;5042832;28;20041;-76
2023/01/25 01:06:12;;;;;;;40.58;24.20;;;1.80;99.90;;;;;;5057537;28;20040;-76
2023/01/25 01:08:40;;;;;;;42.65;23.27;;;1.80;99.90;;;;;;5059475;28;20043;-76
2023/01/25 01:11:08;;;;;;;36.53;23.30;;;1.80;99.90;;;;;;5052786;28;20487;-76
2023/01/25 01:13:34;;;;;;;36.97;21.75;;;1.80;99.90;;;;;;5051914;28;20037;-76
2023/01/25 01:16:02;;;;;;;39.55;22.52;;;1.80;99.90;;;;;;5054010;28;20052;-76
2023/01/25 01:18:32;;;;;;;38.00;23.23;;;1.80;99.90;;;;;;5044572;28;20716;-76
2023/01/25 01:20:58;;;;;;;39.85;23.70;;;1.80;99.90;;;;;;5050658;28;20033;-76
2023/01/25 01:23:23;;;;;;;42.13;23.42;;;1.80;99.90;;;;;;5055747;28;20040;-76
2023/01/25 01:25:49;;;;;;;39.45;24.25;;;1.80;99.90;;;;;;5063185;28;20538;-76
2023/01/25 01:28:15;;;;;;;48.38;23.83;;;1.80;99.90;;;;;;5062272;28;20086;-76
2023/01/25 01:30:41;;;;;;;42.97;24.10;;;1.80;99.90;;;;;;5049547;28;20052;-76
2023/01/25 01:33:07;;;;;;;42.10;25.20;;;1.80;99.90;;;;;;5033117;28;20042;-76
2023/01/25 01:35:32;;;;;;;40.45;24.15;;;1.80;99.90;;;;;;5048322;28;20061;-76
2023/01/25 01:37:58;;;;;;;38.28;22.48;;;1.80;99.90;;;;;;5054422;28;20091;-76
2023/01/25 01:40:24;;;;;;;42.13;25.27;;;1.90;99.90;;;;;;5058077;28;20366;-76
2023/01/25 01:42:58;;;;;;;39.78;23.42;;;1.80;99.90;;;;;;5028436;28;20045;-76
2023/01/25 01:45:42;;;;;;;40.25;23.98;;;1.80;99.90;;;;;;5057239;28;20079;-76
2023/01/25 01:48:20;;;;;;;39.42;24.55;;;1.80;99.90;;;;;;5044575;28;20496;-76
2023/01/25 01:50:52;;;;;;;42.08;25.17;;;3.00;99.90;;;;;;5053522;28;20202;-76
2023/01/25 01:53:19;;;;;;;39.58;23.02;;;1.70;99.90;;;;;;5047745;28;20041;-77
2023/01/25 01:55:46;;;;;;;39.08;23.48;;;1.70;99.90;;;;;;5053343;28;20033;-77
2023/01/25 01:58:12;;;;;;;40.95;24.73;;;1.70;99.90;;;;;;5065134;28;20477;-78
2023/01/25 02:00:40;;;;;;;39.20;23.77;;;1.70;99.90;;;;;;5049433;28;20080;-78
2023/01/25 02:03:08;;;;;;;39.03;23.80;;;1.70;99.90;;;;;;5033845;28;20044;-77
2023/01/25 02:05:51;;;;;;;40.75;24.00;;;1.70;99.90;;;;;;5057148;28;20436;-76
2023/01/25 02:08:18;;;;;;;39.88;23.80;;;1.70;99.90;;;;;;5057516;28;20037;-76
2023/01/25 02:10:45;;;;;;;40.85;24.95;;;2.20;99.90;;;;;;5049722;28;20537;-76
2023/01/25 02:13:11;;;;;;;42.45;24.95;;;1.70;99.90;;;;;;5052913;28;20215;-76
2023/01/25 02:15:44;;;;;;;42.03;24.60;;;1.70;99.90;;;;;;5039016;28;20036;-76
2023/01/25 02:18:11;;;;;;;41.83;23.88;;;1.70;99.90;;;;;;5037849;28;20084;-76
2023/01/25 02:20:38;;;;;;;44.40;24.27;;;1.70;99.90;;;;;;5049554;28;20501;-78
2023/01/25 02:23:24;;;;;;;43.58;25.10;;;1.70;99.90;;;;;;5049890;28;20119;-76
2023/01/25 02:25:50;;;;;;;44.00;24.45;;;1.70;99.90;;;;;;5032525;28;20127;-77
2023/01/25 02:28:27;;;;;;;39.03;23.17;;;1.70;99.90;;;;;;5059359;28;20079;-77
2023/01/25 02:30:53;;;;;;;44.92;25.55;;;1.80;99.90;;;;;;5035165;28;20044;-78
2023/01/25 02:33:22;;;;;;;41.75;24.20;;;2.10;99.90;;;;;;5055333;28;20519;-76
2023/01/25 02:36:00;;;;;;;40.83;24.17;;;2.30;99.90;;;;;;5049894;28;20446;-77
2023/01/25 02:38:34;;;;;;;41.20;23.50;;;1.70;99.90;;;;;;5049990;28;20135;-76
2023/01/25 02:41:23;;;;;;;44.13;25.40;;;2.30;99.90;;;;;;5034139;28;20033;-76
2023/01/25 02:43:49;;;;;;;43.28;25.48;;;1.70;99.90;;;;;;5057070;28;20496;-78
2023/01/25 02:46:19;;;;;;;44.08;25.55;;;1.60;99.90;;;;;;5049049;28;20047;-76
2023/01/25 02:48:45;;;;;;;43.10;23.77;;;1.60;99.90;;;;;;5049324;28;20040;-77
2023/01/25 02:51:11;;;;;;;43.90;24.10;;;1.90;99.90;;;;;;5040545;28;20435;-80
2023/01/25 02:53:37;;;;;;;44.70;24.90;;;1.60;99.90;;;;;;5057722;28;20107;-76
2023/01/25 02:56:06;;;;;;;45.03;25.45;;;1.60;99.90;;;;;;5066247;28;20094;-76
2023/01/25 02:58:32;;;;;;;43.55;24.15;;;1.60;99.90;;;;;;5034899;28;20078;-78
2023/01/25 03:00:58;;;;;;;46.90;25.23;;;1.60;99.90;;;;;;5053385;28;20041;-76
2023/01/25 03:03:24;;;;;;;43.83;24.50;;;1.60;99.90;;;;;;5034860;28;20123;-76
2023/01/25 03:05:49;;;;;;;44.15;24.55;;;1.60;99.90;;;;;;5043118;28;20458;-77
2023/01/25 03:08:15;;;;;;;47.15;25.50;;;1.60;99.90;;;;;;5054471;28;20082;-76
2023/01/25 03:10:40;;;;;;;45.58;25.65;;;1.60;99.90;;;;;;5044308;28;20090;-77
2023/01/25 03:13:06;;;;;;;44.63;25.13;;;1.60;99.90;;;;;;5063818;28;20072;-78
2023/01/25 03:15:32;;;;;;;45.10;25.10;;;1.60;99.90;;;;;;5055780;28;20135;-76
2023/01/25 03:17:58;;;;;;;46.92;26.27;;;1.60;99.90;;;;;;5049167;28;20044;-76
2023/01/25 03:20:23;;;;;;;45.80;25.10;;;1.60;99.90;;;;;;5052392;28;20033;-76
2023/01/25 03:22:49;;;;;;;46.53;25.67;;;1.60;99.90;;;;;;5040796;28;20528;-77
2023/01/25 03:25:17;;;;;;;44.30;24.55;;;1.60;99.90;;;;;;5040146;28;20037;-77
2023/01/25 03:27:43;;;;;;;47.88;26.00;;;1.50;99.90;;;;;;5033720;28;20044;-77
2023/01/25 03:30:10;;;;;;;45.38;24.98;;;1.60;99.90;;;;;;5063877;28;20531;-76
2023/01/25 03:32:36;;;;;;;45.33;26.35;;;1.60;99.90;;;;;;5047475;28;20055;-76
2023/01/25 03:35:02;;;;;;;48.17;26.55;;;1.60;99.90;;;;;;5054200;28;20041;-77
2023/01/25 03:37:30;;;;;;;44.88;24.90;;;1.60;99.90;;;;;;5041695;28;20094;-77
2023/01/25 03:39:58;;;;;;;46.53;26.58;;;1.60;99.90;;;;;;5060781;28;20471;-77
2023/01/25 03:42:24;;;;;;;47.88;26.05;;;1.60;99.90;;;;;;5053188;28;20029;-77
2023/01/25 03:44:50;;;;;;;45.47;25.52;;;1.60;99.90;;;;;;5064254;28;20044;-77
2023/01/25 03:47:15;;;;;;;46.17;25.60;;;1.60;99.90;;;;;;5062882;28;20032;-77
2023/01/25 03:49:41;;;;;;;48.50;26.73;;;1.60;99.90;;;;;;5055466;28;20041;-77
2023/01/25 03:52:07;;;;;;;49.80;27.17;;;1.50;99.90;;;;;;5057361;28;20075;-78
2023/01/25 03:54:33;;;;;;;46.72;26.60;;;1.40;99.90;;;;;;5065467;28;20044;-77
2023/01/25 03:57:02;;;;;;;47.50;25.70;;;1.40;99.90;;;;;;5064888;28;20041;-77
2023/01/25 03:59:27;;;;;;;47.60;24.83;;;1.30;99.90;;;;;;5044130;28;20068;-76
2023/01/25 04:01:53;;;;;;;51.67;27.23;;;1.60;99.90;;;;;;5052724;28;20563;-77
2023/01/25 04:04:18;;;;;;;46.92;25.50;;;1.30;99.90;;;;;;5057212;28;20029;-77
2023/01/25 04:06:44;;;;;;;46.47;25.83;;;1.30;99.90;;;;;;5046561;28;20036;-77
2023/01/25 04:09:19;;;;;;;46.97;25.38;;;1.20;99.90;;;;;;5058570;28;20037;-76
2023/01/25 04:11:44;;;;;;;47.63;26.02;;;1.20;99.90;;;;;;5052853;28;20045;-77
2023/01/25 04:14:10;;;;;;;46.88;25.92;;;1.20;99.90;;;;;;5052765;28;20481;-77
2023/01/25 04:16:36;;;;;;;48.13;26.73;;;1.20;99.90;;;;;;5058147;28;20093;-76
2023/01/25 04:19:01;;;;;;;44.78;25.20;;;1.20;99.90;;;;;;5047474;28;20033;-77
2023/01/25 04:21:27;;;;;;;46.28;26.02;;;1.20;99.90;;;;;;5054555;28;20044;-77
2023/01/25 04:23:52;;;;;;;46.13;25.33;;;1.20;99.90;;;;;;5036564;28;20041;-77
2023/01/25 04:26:18;;;;;;;46.88;26.23;;;1.20;99.90;;;;;;5064773;28;20040;-77
2023/01/25 04:28:44;;;;;;;45.50;25.02;;;1.20;99.90;;;;;;5056060;28;20032;-77
2023/01/25 04:31:12;;;;;;;47.22;26.33;;;1.20;99.90;;;;;;5050465;28;20041;-77
2023/01/25 04:33:38;;;;;;;44.42;25.33;;;1.20;99.90;;;;;;5038567;28;20124;-77
2023/01/25 04:36:04;;;;;;;45.08;25.25;;;1.30;99.90;;;;;;5040386;28;20065;-77
2023/01/25 04:38:30;;;;;;;48.05;26.77;;;1.30;99.90;;;;;;5059323;28;20036;-77
2023/01/25 04:40:55;;;;;;;46.80;25.67;;;1.30;99.90;;;;;;5052954;28;20493;-77
2023/01/25 04:43:21;;;;;;;49.92;26.70;;;1.30;99.90;;;;;;5053226;28;20392;-78
2023/01/25 04:45:47;;;;;;;47.92;26.58;;;1.30;99.90;;;;;;5059328;28;20040;-77
2023/01/25 04:48:14;;;;;;;46.63;26.50;;;1.30;99.90;;;;;;5040075;28;20503;-77
2023/01/25 04:50:45;;;;;;;47.67;24.73;;;1.20;99.90;;;;;;5056410;28;20120;-77
2023/01/25 04:53:11;;;;;;;47.40;26.10;;;1.20;99.90;;;;;;5038065;28;20515;-77
2023/01/25 04:55:37;;;;;;;46.63;25.75;;;2.00;99.90;;;;;;5051563;28;20037;-77
2023/01/25 04:58:10;;;;;;;43.42;24.08;;;2.30;99.90;;;;;;5047027;28;20040;-77
2023/01/25 05:00:36;;;;;;;46.83;26.52;;;1.90;99.90;;;;;;5051717;28;20033;-77
2023/01/25 05:03:02;;;;;;;46.95;25.77;;;1.30;99.90;;;;;;5051731;28;20047;-77
2023/01/25 05:05:28;;;;;;;45.67;25.15;;;1.30;99.90;;;;;;5048557;28;20052;-77
2023/01/25 05:07:53;;;;;;;45.35;25.23;;;1.30;99.90;;;;;;5062039;28;20029;-77
2023/01/25 05:10:20;;;;;;;44.33;24.13;;;1.20;99.90;;;;;;5056147;28;20045;-76
2023/01/25 05:12:45;;;;;;;44.63;24.52;;;1.20;99.90;;;;;;5051663;28;20120;-76
2023/01/25 05:15:11;;;;;;;44.33;24.67;;;1.60;99.90;;;;;;5054600;28;20092;-79
2023/01/25 05:17:36;;;;;;;45.03;24.27;;;1.20;99.90;;;;;;5056271;28;20036;-77
2023/01/25 05:20:03;;;;;;;42.40;24.48;;;1.20;99.90;;;;;;5049748;28;20033;-78
2023/01/25 05:22:29;;;;;;;48.55;24.83;;;1.20;99.90;;;;;;5049901;28;20477;-77
2023/01/25 05:24:54;;;;;;;44.03;24.45;;;1.20;99.90;;;;;;5054083;28;20095;-78
2023/01/25 05:27:21;;;;;;;43.63;24.00;;;1.20;99.90;;;;;;5061441;28;20033;-78
2023/01/25 05:29:47;;;;;;;46.63;24.50;;;1.20;99.90;;;;;;5053056;28;20037;-78
2023/01/25 05:32:18;;;;;;;44.65;24.23;;;1.10;99.90;;;;;;5065764;28;20059;-78
2023/01/25 05:34:44;;;;;;;41.47;23.30;;;1.10;99.90;;;;;;5054936;28;20087;-78
2023/01/25 05:37:14;;;;;;;42.50;24.02;;;1.10;99.90;;;;;;5058138;28;20060;-77
2023/01/25 05:39:39;;;;;;;44.35;24.00;;;1.30;99.90;;;;;;5052303;28;20037;-78
2023/01/25 05:42:14;;;;;;;47.15;25.83;;;1.10;99.90;;;;;;5042315;28;20052;-78
2023/01/25 05:44:40;;;;;;;42.75;24.58;;;1.10;99.90;;;;;;5062431;28;20055;-77
2023/01/25 05:47:19;;;;;;;46.65;24.88;;;1.10;99.90;;;;;;5049652;28;20405;-78
2023/01/25 05:49:45;;;;;;;48.67;25.08;;;1.80;99.90;;;;;;5034376;28;20428;-79
2023/01/25 05:52:18;;;;;;;44.45;24.38;;;1.10;99.90;;;;;;5056858;28;20095;-78
2023/01/25 05:54:43;;;;;;;46.33;25.30;;;1.20;99.90;;;;;;5052939;28;20489;-77
2023/01/25 05:57:09;;;;;;;41.53;23.55;;;2.10;99.90;;;;;;5050610;28;20033;-77
2023/01/25 05:59:35;;;;;;;45.20;24.35;;;1.20;99.90;;;;;;5050320;28;20029;-77
2023/01/25 06:02:01;;;;;;;44.35;24.10;;;1.20;99.90;;;;;;5032750;28;20144;-77
2023/01/25 06:04:27;;;;;;;43.60;25.30;;;1.10;99.90;;;;;;5032422;28;20449;-77
2023/01/25 06:06:52;;;;;;;46.33;24.70;;;1.20;99.90;;;;;;5045675;28;20444;-77
2023/01/25 06:09:18;;;;;;;47.58;24.58;;;1.10;99.90;;;;;;5049835;28;20045;-77
2023/01/25 06:11:44;;;;;;;46.97;25.42;;;1.10;99.90;;;;;;5039628;28;20047;-77
2023/01/25 06:14:19;;;;;;;48.30;25.25;;;1.10;99.90;;;;;;5041128;28;20045;-77
2023/01/25 06:16:53;;;;;;;46.78;24.58;;;1.30;99.90;;;;;;5046524;28;20043;-77
2023/01/25 06:19:18;;;;;;;47.50;26.33;;;1.10;99.90;;;;;;5037778;28;20044;-77
2023/01/25 06:21:44;;;;;;;46.65;25.95;;;1.10;99.90;;;;;;5054784;28;20038;-77
2023/01/25 06:24:10;;;;;;;46.55;26.13;;;1.10;99.90;;;;;;5051176;28;20417;-77
2023/01/25 06:26:35;;;;;;;46.63;26.05;;;1.10;99.90;;;;;;5043953;28;20037;-78
2023/01/25 06:29:04;;;;;;;46.47;24.73;;;1.70;99.90;;;;;;5045323;28;20458;-77
2023/01/25 06:31:30;;;;;;;46.20;24.88;;;1.10;99.90;;;;;;5055699;28;20044;-79
2023/01/25 06:33:59;;;;;;;42.80;23.70;;;1.10;99.90;;;;;;5050122;28;20048;-77
2023/01/25 06:36:25;;;;;;;42.63;23.13;;;1.00;99.90;;;;;;5056165;28;20116;-78
2023/01/25 06:38:51;;;;;;;42.63;23.70;;;0.90;99.90;;;;;;5058206;28;20124;-77
2023/01/25 06:41:18;;;;;;;45.28;23.63;;;0.20;99.90;;;;;;5059009;28;20037;-78
2023/01/25 06:43:44;;;;;;;44.40;24.33;;;0.90;99.90;;;;;;5050282;28;20119;-78
2023/01/25 06:46:13;;;;;;;46.60;25.70;;;0.80;99.90;;;;;;5060183;28;20112;-77
2023/01/25 06:48:39;;;;;;;47.10;24.60;;;0.80;99.90;;;;;;5058653;28;20580;-77
2023/01/25 06:51:07;;;;;;;44.95;25.13;;;0.80;99.90;;;;;;5061475;28;20094;-77
2023/01/25 06:53:35;;;;;;;45.25;24.35;;;0.80;99.90;;;;;;5057333;28;20162;-78
2023/01/25 06:56:10;;;;;;;43.42;23.17;;;0.90;99.90;;;;;;5053401;28;20038;-77
2023/01/25 06:58:36;;;;;;;45.00;24.23;;;0.90;99.90;;;;;;5037875;28;20485;-77
2023/01/25 07:01:12;;;;;;;46.03;24.42;;;1.50;99.90;;;;;;5052797;28;20029;-77
2023/01/25 07:03:38;;;;;;;48.65;26.02;;;0.90;99.90;;;;;;5041028;28;20048;-77
2023/01/25 07:06:06;;;;;;;46.60;25.33;;;1.00;99.90;;;;;;5038116;28;20209;-77
2023/01/25 07:08:33;;;;;;;46.03;23.73;;;1.00;99.90;;;;;;5051144;28;20052;-77
2023/01/25 07:11:04;;;;;;;47.05;23.45;;;1.00;99.90;;;;;;5069000;28;20135;-77
2023/01/25 07:13:31;;;;;;;47.83;24.95;;;1.00;99.90;;;;;;5056170;28;20110;-77
2023/01/25 07:16:04;;;;;;;50.78;24.02;;;1.00;99.90;;;;;;5061125;28;20040;-77
2023/01/25 07:18:31;;;;;;;46.17;24.38;;;1.10;99.90;;;;;;5035346;28;20076;-77
2023/01/25 07:21:12;;;;;;;44.92;24.20;;;1.00;99.90;;;;;;5043164;28;20106;-77
2023/01/25 07:23:38;;;;;;;46.78;24.85;;;0.90;99.90;;;;;;5046346;28;20055;-77
2023/01/25 07:26:05;;;;;;;44.67;23.75;;;1.10;99.90;;;;;;5040652;28;20041;-77
2023/01/25 07:28:31;;;;;;;49.25;25.52;;;1.10;99.90;;;;;;5041712;28;20041;-77
2023/01/25 07:31:05;;;;;;;47.67;24.90;;;1.10;99.90;;;;;;5047926;28;20367;-77
2023/01/25 07:33:31;;;;;;;43.88;23.92;;;1.10;99.90;;;;;;5040605;28;20037;-77
2023/01/25 07:36:01;;;;;;;47.35;24.92;;;1.10;99.90;;;;;;5040572;28;20041;-76
2023/01/25 07:38:30;;;;;;;49.08;25.48;;;1.10;99.90;;;;;;5047525;28;20033;-77
2023/01/25 07:40:55;;;;;;;49.78;25.48;;;1.90;99.90;;;;;;5046237;28;20116;-77
2023/01/25 07:43:21;;;;;;;50.50;26.35;;;1.10;99.90;;;;;;5047504;28;20073;-77
2023/01/25 07:45:49;;;;;;;49.15;26.23;;;1.10;99.90;;;;;;5023810;28;20482;-77
2023/01/25 07:48:17;;;;;;;49.53;25.67;;;1.00;99.90;;;;;;5040627;28;20051;-77
2023/01/25 07:50:48;;;;;;;49.17;26.25;;;1.00;99.90;;;;;;5057409;28;20056;-77
2023/01/25 07:53:15;;;;;;;51.35;26.92;;;1.10;99.90;;;;;;5045973;28;20506;-77
2023/01/25 07:55:40;;;;;;;52.95;27.33;;;1.10;99.90;;;;;;5043042;28;20037;-77
2023/01/25 07:58:09;;;;;;;51.30;26.20;;;1.00;99.90;;;;;;5027794;28;20049;-76
2023/01/25 08:00:34;;;;;;;44.30;24.23;;;1.00;99.90;;;;;;5047611;28;20030;-77
2023/01/25 08:03:00;;;;;;;46.88;25.15;;;0.90;99.90;;;;;;5043451;28;20076;-77
2023/01/25 08:05:26;;;;;;;45.42;24.40;;;0.90;99.90;;;;;;5042572;28;20040;-76
2023/01/25 08:07:51;;;;;;;45.70;23.35;;;1.50;99.90;;;;;;5037518;28;20040;-77
2023/01/25 08:10:17;;;;;;;44.03;23.60;;;0.80;99.90;;;;;;5034950;28;20051;-77
2023/01/25 08:12:46;;;;;;;45.92;24.27;;;0.80;99.90;;;;;;5020604;28;20478;-77
2023/01/25 08:15:12;;;;;;;46.40;24.35;;;0.70;99.90;;;;;;5039523;28;20448;-77
2023/01/25 08:17:38;;;;;;;45.25;22.75;;;0.70;99.90;;;;;;5051656;28;20049;-77
2023/01/25 08:20:05;;;;;;;41.92;21.65;;;0.80;99.90;;;;;;5055661;28;20033;-77
2023/01/25 08:22:30;;;;;;;43.90;22.95;;;0.70;99.90;;;;;;5043487;28;20393;-77
2023/01/25 08:24:56;;;;;;;43.97;22.50;;;0.70;99.90;;;;;;5055595;28;20048;-77
2023/01/25 08:27:22;;;;;;;45.58;23.83;;;0.70;99.90;;;;;;5046476;28;20037;-77
2023/01/25 08:29:49;;;;;;;45.80;23.67;;;0.70;99.90;;;;;;5048935;28;20044;-76
2023/01/25 08:32:15;;;;;;;44.00;22.55;;;0.80;99.90;;;;;;5048175;28;20094;-76
2023/01/25 08:34:41;;;;;;;45.17;23.30;;;0.80;99.90;;;;;;5045694;28;20052;-77
2023/01/25 08:37:06;;;;;;;45.40;23.60;;;0.80;99.90;;;;;;5060305;28;20041;-77
2023/01/25 08:39:32;;;;;;;44.28;23.60;;;0.80;99.90;;;;;;5059902;28;20119;-77
2023/01/25 08:41:58;;;;;;;47.05;24.23;;;0.80;99.90;;;;;;5060801;28;20052;-78
2023/01/25 08:44:24;;;;;;;44.42;22.40;;;0.80;99.90;;;;;;5064549;28;20096;-78
2023/01/25 08:46:50;;;;;;;46.20;22.55;;;0.90;99.90;;;;;;5060483;28;20041;-77
2023/01/25 08:49:16;;;;;;;41.25;21.65;;;0.80;99.90;;;;;;5051245;28;20067;-77
2023/01/25 08:51:42;;;;;;;39.45;21.33;;;0.80;99.90;;;;;;5043158;28;20037;-77
2023/01/25 08:54:10;;;;;;;39.53;21.13;;;0.70;99.90;;;;;;5053302;28;20044;-77
2023/01/25 08:56:38;;;;;;;36.95;19.83;;;0.70;99.90;;;;;;5043095;28;20128;-78
2023/01/25 08:59:04;;;;;;;37.85;20.50;;;0.70;99.90;;;;;;5057106;28;20038;-77
2023/01/25 09:01:30;;;;;;;36.40;20.15;;;0.60;99.90;;;;;;5038928;28;20028;-77
2023/01/25 09:03:56;;;;;;;38.50;20.13;;;0.60;99.90;;;;;;5055261;28;20063;-77
2023/01/25 09:06:21;;;;;;;38.15;19.58;;;0.60;99.90;;;;;;5053632;28;20302;-77
2023/01/25 09:08:47;;;;;;;37.28;19.52;;;0.70;99.90;;;;;;5047544;28;20045;-77
2023/01/25 09:11:18;;;;;;;38.67;20.83;;;0.70;99.90;;;;;;5059814;28;20036;-77
2023/01/25 09:13:44;;;;;;;41.85;21.45;;;0.70;99.90;;;;;;5050292;28;20037;-77
2023/01/25 09:16:12;;;;;;;38.20;20.75;;;0.70;99.90;;;;;;5049667;28;20047;-77
2023/01/25 09:18:40;;;;;;;38.90;20.05;;;0.60;99.90;;;;;;5062558;28;20037;-77
2023/01/25 09:21:10;;;;;;;39.00;20.50;;;0.60;99.90;;;;;;5047673;28;20551;-77
2023/01/25 09:23:36;;;;;;;41.33;21.27;;;0.60;99.90;;;;;;5059245;28;20037;-77
2023/01/25 09:26:02;;;;;;;39.50;21.08;;;0.60;99.90;;;;;;5063555;28;20523;-77
2023/01/25 09:28:29;;;;;;;42.05;22.65;;;0.60;99.90;;;;;;5058567;28;20040;-77
2023/01/25 09:30:56;;;;;;;36.95;20.42;;;0.60;99.90;;;;;;5050161;28;20132;-77
2023/01/25 09:33:30;;;;;;;39.30;20.45;;;0.50;99.90;;;;;;5051766;28;20123;-77
2023/01/25 09:35:56;;;;;;;41.65;21.42;;;0.60;99.90;;;;;;5061443;28;20060;-77
2023/01/25 09:38:22;;;;;;;40.13;20.30;;;0.60;99.90;;;;;;5058187;28;20060;-77
2023/01/25 09:41:01;;;;;;;40.95;21.27;;;0.60;99.90;;;;;;5059816;28;20089;-78
2023/01/25 09:43:49;;;;;;;41.88;21.08;;;0.60;99.90;;;;;;5046516;28;20705;-77
2023/01/25 09:46:32;;;;;;;39.53;21.23;;;0.60;99.90;;;;;;5066545;28;20179;-77
2023/01/25 09:49:08;;;;;;;38.88;20.42;;;0.50;99.90;;;;;;5049302;28;20528;-77
2023/01/25 09:52:12;;;;;;;40.60;20.67;;;0.60;99.90;;;;;;5056104;28;20058;-77
2023/01/25 09:54:45;;;;;;;40.65;20.88;;;0.60;99.90;;;;;;5053186;28;20033;-77
2023/01/25 09:57:35;;;;;;;39.38;20.45;;;0.60;99.90;;;;;;5049959;28;20079;-77
2023/01/25 10:00:13;;;;;;;42.88;21.90;;;0.60;99.90;;;;;;5057507;28;20033;-77
2023/01/25 10:02:43;;;;;;;41.45;21.10;;;0.60;99.90;;;;;;5054883;28;20037;-76
2023/01/25 10:05:16;;;;;;;40.92;20.10;;;0.50;99.90;;;;;;5050259;28;20458;-79
2023/01/25 10:08:05;;;;;;;41.85;21.00;;;0.60;99.90;;;;;;5032157;28;20038;-77
2023/01/25 10:10:41;;;;;;;41.70;20.83;;;0.60;99.90;;;;;;5032549;28;20444;-78
2023/01/25 10:13:20;;;;;;;38.50;19.33;;;0.60;99.90;;;;;;5035329;28;20037;-78
2023/01/25 10:16:05;;;;;;;39.55;20.58;;;0.60;99.90;;;;;;5046736;28;20067;-77
2023/01/25 10:18:52;;;;;;;43.20;21.30;;;0.50;99.90;;;;;;5032993;28;20077;-77
2023/01/25 10:21:51;;;;;;;40.95;20.88;;;0.60;99.90;;;;;;5024531;28;20047;-77
2023/01/25 10:24:35;;;;;;;44.50;22.65;;;0.60;99.90;;;;;;5003522;28;20621;-77
2023/01/25 10:27:22;;;;;;;41.67;20.45;;;0.70;99.90;;;;;;5034919;28;20083;-77
2023/01/25 10:29:48;;;;;;;44.50;21.83;;;0.60;99.90;;;;;;5046110;28;20037;-77
2023/01/25 10:32:27;;;;;;;44.25;21.20;;;0.60;99.90;;;;;;5051451;28;20043;-77
2023/01/25 10:34:57;;;;;;;42.45;20.20;;;0.70;99.90;;;;;;5056762;28;20055;-77
2023/01/25 10:37:27;;;;;;;43.05;20.98;;;0.70;99.90;;;;;;5062209;28;20078;-77
2023/01/25 10:40:25;;;;;;;49.47;22.52;;;0.70;99.90;;;;;;5056100;28;20292;-77
2023/01/25 10:43:16;;;;;;;44.83;21.52;;;0.70;99.90;;;;;;5035571;28;20052;-77
2023/01/25 10:45:43;;;;;;;41.92;21.77;;;0.70;99.90;;;;;;5053885;28;20033;-77
2023/01/25 10:48:17;;;;;;;45.20;22.40;;;0.70;99.90;;;;;;5050639;28;20126;-77
2023/01/25 10:50:45;;;;;;;45.85;21.92;;;0.70;99.90;;;;;;5054299;28;20106;-77
2023/01/25 10:53:24;;;;;;;45.88;23.23;;;0.70;99.90;;;;;;5040583;28;20400;-77
2023/01/25 10:56:24;;;;;;;45.20;21.63;;;0.70;99.90;;;;;;5058400;28;20047;-77
2023/01/25 10:59:03;;;;;;;46.28;22.73;;;0.60;99.90;;;;;;5045192;28;20099;-78
2023/01/25 11:01:32;;;;;;;49.47;22.35;;;0.60;99.90;;;;;;5061584;28;20116;-77
2023/01/25 11:03:59;;;;;;;44.20;21.85;;;0.60;99.90;;;;;;5047570;28;20138;-77
2023/01/25 11:06:45;;;;;;;48.13;22.52;;;0.60;99.90;;;;;;5055512;28;20045;-77
2023/01/25 11:09:20;;;;;;;47.28;21.95;;;0.50;99.90;;;;;;5044661;28;20037;-77
2023/01/25 11:12:17;;;;;;;47.65;22.60;;;0.50;99.90;;;;;;5066810;28;20036;-77
2023/01/25 11:14:43;;;;;;;47.42;22.27;;;0.50;99.90;;;;;;5048941;28;20044;-77
2023/01/25 11:17:26;;;;;;;49.58;23.63;;;0.50;99.90;;;;;;5066070;28;20044;-77
2023/01/25 11:20:17;;;;;;;50.47;23.40;;;0.50;99.90;;;;;;5052540;28;20120;-77
2023/01/25 11:22:54;;;;;;;48.25;21.88;;;0.50;99.90;;;;;;5032630;28;20037;-77
2023/01/25 11:25:24;;;;;;;45.72;21.92;;;0.60;99.90;;;;;;5050758;28;20456;-77
2023/01/25 11:27:50;;;;;;;49.28;22.63;;;0.60;99.90;;;;;;5053980;28;20064;-78
2023/01/25 11:30:19;;;;;;;46.25;22.38;;;0.60;99.90;;;;;;5050543;28;20507;-77
2023/01/25 11:32:45;;;;;;;49.53;22.52;;;0.60;99.90;;;;;;5040874;28;20037;-77
2023/01/25 11:35:30;;;;;;;49.38;23.30;;;0.60;99.90;;;;;;5034886;28;20036;-78
2023/01/25 11:38:11;;;;;;;49.08;21.75;;;0.60;99.90;;;;;;5049011;28;20374;-77
2023/01/25 11:41:21;;;;;;;47.22;22.77;;;0.60;99.90;;;;;;5044613;28;20052;-76
2023/01/25 11:44:01;;;;;;;46.58;21.73;;;0.60;99.90;;;;;;5014071;28;20053;-78
2023/01/25 11:46:53;;;;;;;51.55;22.55;;;0.60;99.90;;;;;;5051066;28;20033;-77
2023/01/25 11:49:39;;;;;;;47.72;21.63;;;0.50;99.90;;;;;;5048939;28;20358;-78
2023/01/25 11:52:27;;;;;;;47.80;22.05;;;0.50;99.90;;;;;;5051184;28;20504;-77
2023/01/25 11:55:13;;;;;;;46.58;20.48;;;0.50;99.90;;;;;;5040549;28;20115;-77
2023/01/25 11:58:11;;;;;;;49.50;21.88;;;0.50;99.90;;;;;;5036342;28;20516;-77
2023/01/25 12:00:40;;;;;;;48.17;21.30;;;0.40;99.90;;;;;;5049838;28;20072;-77
2023/01/25 12:03:35;;;;;;;47.55;22.05;;;0.40;99.90;;;;;;5040281;28;20052;-77
2023/01/25 12:06:31;;;;;;;45.00;20.13;;;0.40;99.90;;;;;;5045234;28;20041;-77
2023/01/25 12:09:30;;;;;;;44.10;20.42;;;0.40;99.90;;;;;;5045451;28;20056;-77
2023/01/25 12:12:08;;;;;;;43.22;19.67;;;0.40;99.90;;;;;;5046793;28;20055;-77
2023/01/25 12:14:40;;;;;;;40.70;19.20;;;0.40;99.90;;;;;;5046617;28;20087;-77
2023/01/25 12:17:14;;;;;;;43.72;19.45;;;0.40;99.90;;;;;;5032641;28;20033;-77
2023/01/25 12:20:05;;;;;;;39.63;18.35;;;0.30;99.90;;;;;;5062759;28;20040;-77
2023/01/25 12:23:01;;;;;;;43.28;18.77;;;0.30;99.90;;;;;;5053738;28;20045;-76
2023/01/25 12:25:33;;;;;;;42.95;19.40;;;0.30;99.90;;;;;;5057955;28;20064;-77
2023/01/25 12:28:02;;;;;;;43.28;19.30;;;0.30;99.90;;;;;;5061943;28;20037;-77
2023/01/25 12:30:43;;;;;;;44.53;19.20;;;0.30;99.90;;;;;;5052307;28;20040;-77
2023/01/25 12:33:18;;;;;;;46.58;20.52;;;0.30;99.90;;;;;;5055969;28;20075;-77
2023/01/25 12:36:04;;;;;;;42.75;19.38;;;0.30;99.90;;;;;;5022207;28;20037;-77
2023/01/25 12:38:50;;;;;;;43.80;20.63;;;0.20;99.90;;;;;;5041789;28;20095;-77
2023/01/25 12:41:30;;;;;;;46.35;19.77;;;0.20;99.90;;;;;;5060980;28;20071;-77
2023/01/25 12:44:33;;;;;;;44.90;19.17;;;0.20;99.90;;;;;;5059261;28;20075;-77
2023/01/25 12:47:31;;;;;;;45.80;20.92;;;0.20;99.90;;;;;;5053097;28;20536;-77
2023/01/25 12:50:18;;;;;;;44.80;20.63;;;0.20;99.90;;;;;;5053891;28;20091;-77
2023/01/25 12:52:49;;;;;;;48.45;20.20;;;0.20;99.90;;;;;;5062947;28;20201;-77
2023/01/25 12:55:16;;;;;;;51.33;20.23;;;0.20;99.90;;;;;;5060108;28;20036;-77